createdAt,value
2023-04-05T00:01:12.378Z,34.50
2023-04-05T00:03:41.280Z,34.17
2023-04-05T00:06:09.109Z,34.41
2023-04-05T00:08:37.149Z,34.09
2023-04-05T00:11:04.831Z,34.56
2023-04-05T00:13:32.582Z,34.18
2023-04-05T00:16:01.346Z,34.16
2023-04-05T00:18:34.063Z,34.23
2023-04-05T00:21:01.861Z,34.21
2023-04-05T00:23:29.550Z,33.94
2023-04-05T00:25:57.303Z,34.66
2023-04-05T00:28:25.229Z,34.10
2023-04-05T00:30:53.293Z,34.14
2023-04-05T00:33:21.064Z,34.63
2023-04-05T00:35:49.087Z,34.47
2023-04-05T00:38:17.229Z,34.56
2023-04-05T00:40:45.331Z,34.75
2023-04-05T00:43:13.371Z,34.85
2023-04-05T00:45:42.584Z,34.64
2023-04-05T00:48:12.189Z,34.95
2023-04-05T00:50:41.536Z,34.67
2023-04-05T00:53:09.649Z,34.92
2023-04-05T00:55:38.074Z,35.18
2023-04-05T00:58:06.316Z,34.70
2023-04-05T01:00:34.237Z,35.17
2023-04-05T01:03:04.475Z,35.02
2023-04-05T01:05:54.042Z,35.03
2023-04-05T01:08:40.687Z,35.17
2023-04-05T01:11:10.417Z,35.21
2023-04-05T01:13:38.167Z,34.81
2023-04-05T01:16:06.274Z,34.98
2023-04-05T01:18:37.153Z,35.15
2023-04-05T01:21:20.978Z,35.11
2023-04-05T01:24:48.557Z,34.93
2023-04-05T01:27:56.106Z,35.31
2023-04-05T01:30:32.229Z,35.27
2023-04-05T01:33:17.099Z,35.56
2023-04-05T01:36:16.146Z,35.56
2023-04-05T01:38:49.151Z,35.63
2023-04-05T01:41:17.462Z,35.75
2023-04-05T01:43:47.981Z,35.66
2023-04-05T01:46:15.973Z,35.93
2023-04-05T01:48:44.308Z,35.72
2023-04-05T01:51:12.457Z,35.48
2023-04-05T01:53:41.028Z,35.78
2023-04-05T01:56:08.840Z,35.51
2023-04-05T01:58:38.643Z,36.16
2023-04-05T02:01:06.507Z,36.03
2023-04-05T02:03:36.286Z,35.89
2023-04-05T02:06:05.603Z,35.98
2023-04-05T02:08:33.610Z,35.70
2023-04-05T02:11:01.593Z,35.98
2023-04-05T02:13:31.109Z,36.40
2023-04-05T02:15:58.961Z,36.16
2023-04-05T02:18:32.948Z,36.50
2023-04-05T02:21:06.222Z,36.72
2023-04-05T02:23:34.926Z,37.04
2023-04-05T02:26:03.381Z,36.49
2023-04-05T02:28:31.358Z,36.81
2023-04-05T02:30:59.239Z,36.85
2023-04-05T02:33:27.683Z,37.14
2023-04-05T02:35:56.333Z,37.00
2023-04-05T02:38:24.101Z,37.32
2023-04-05T02:40:52.006Z,37.41
2023-04-05T02:43:19.863Z,37.42
2023-04-05T02:45:47.708Z,37.50
2023-04-05T02:48:18.273Z,37.42
2023-04-05T02:50:51.227Z,37.25
2023-04-05T02:53:19.981Z,37.44
2023-04-05T02:55:56.954Z,37.24
2023-04-05T02:58:25.629Z,37.41
2023-04-05T03:00:54.413Z,37.48
2023-04-05T03:03:29.360Z,37.57
2023-04-05T03:06:01.474Z,37.46
2023-04-05T03:08:36.987Z,37.66
2023-04-05T03:11:06.769Z,37.28
2023-04-05T03:13:36.011Z,37.02
2023-04-05T03:16:07.473Z,37.51
2023-04-05T03:18:37.047Z,37.46
2023-04-05T03:21:12.305Z,37.54
2023-04-05T03:23:50.635Z,37.48
2023-04-05T03:26:24.599Z,37.64
2023-04-05T03:28:54.221Z,37.23
2023-04-05T03:31:30.332Z,37.66
2023-04-05T03:34:01.313Z,37.46
2023-04-05T03:36:41.778Z,37.46
2023-04-05T03:39:16.141Z,37.57
2023-04-05T03:41:44.459Z,37.75
2023-04-05T03:44:13.116Z,38.02
2023-04-05T03:46:42.417Z,38.17
2023-04-05T03:49:10.350Z,38.36
2023-04-05T03:51:38.164Z,38.10
2023-04-05T03:54:06.214Z,38.29
2023-04-05T03:56:35.554Z,38.68
2023-04-05T03:59:11.707Z,38.29
2023-04-05T04:01:40.728Z,38.43
2023-04-05T04:04:08.618Z,38.66
2023-04-05T04:06:37.194Z,38.86
2023-04-05T04:09:07.816Z,39.08
2023-04-05T04:11:35.768Z,38.93
2023-04-05T04:14:06.227Z,39.36
2023-04-05T04:16:52.531Z,39.14
2023-04-05T04:19:49.497Z,38.81
2023-04-05T04:22:40.293Z,39.03
2023-04-05T04:25:32.620Z,39.05
2023-04-05T04:28:27.981Z,39.03
2023-04-05T04:31:14.261Z,38.84
2023-04-05T04:34:21.114Z,39.04
2023-04-05T04:37:30.163Z,39.05
2023-04-05T04:40:22.749Z,38.67
2023-04-05T04:43:17.242Z,38.84
2023-04-05T04:46:10.984Z,39.08
2023-04-05T04:49:01.074Z,39.13
2023-04-05T04:51:37.758Z,39.11
2023-04-05T04:54:08.316Z,39.22
2023-04-05T04:56:36.520Z,39.06
2023-04-05T04:59:04.454Z,39.01
2023-04-05T05:01:34.254Z,39.17
2023-04-05T05:04:04.300Z,39.35
2023-04-05T05:06:36.136Z,39.03
2023-04-05T05:09:04.498Z,39.25
2023-04-05T05:11:37.151Z,39.32
2023-04-05T05:14:07.857Z,39.40
2023-04-05T05:16:38.551Z,39.52
2023-04-05T05:19:06.663Z,39.40
2023-04-05T05:21:54.781Z,39.38
2023-04-05T05:24:22.813Z,39.42
2023-04-05T05:26:51.212Z,39.50
2023-04-05T05:29:20.556Z,39.50
2023-04-05T05:31:50.080Z,39.82
2023-04-05T05:34:19.310Z,39.47
2023-04-05T05:36:55.932Z,39.54
2023-04-05T05:39:23.727Z,39.40
2023-04-05T05:41:51.832Z,39.75
2023-04-05T05:44:19.559Z,39.91
2023-04-05T05:46:47.468Z,39.98
2023-04-05T05:49:16.105Z,40.09
2023-04-05T05:51:43.911Z,40.01
2023-04-05T05:54:11.574Z,39.82
2023-04-05T05:56:39.533Z,39.95
2023-04-05T05:59:07.808Z,40.12
2023-04-05T06:01:43.536Z,40.42
2023-04-05T06:04:11.762Z,40.37
2023-04-05T06:06:42.895Z,40.25
2023-04-05T06:09:12.235Z,40.27
2023-04-05T06:11:49.566Z,40.19
2023-04-05T06:14:24.556Z,40.30
2023-04-05T06:16:52.643Z,40.28
2023-04-05T06:19:22.761Z,40.26
2023-04-05T06:21:50.639Z,40.37
2023-04-05T06:24:18.400Z,40.23
2023-04-05T06:26:46.107Z,40.10
2023-04-05T06:29:13.965Z,40.41
2023-04-05T06:31:42.763Z,40.19
2023-04-05T06:34:10.953Z,40.70
2023-04-05T06:36:39.825Z,40.67
2023-04-05T06:39:07.973Z,40.82
2023-04-05T06:41:40.252Z,40.54
2023-04-05T06:44:08.425Z,40.53
2023-04-05T06:46:39.837Z,40.58
2023-04-05T06:49:07.593Z,40.49
2023-04-05T06:51:36.666Z,40.51
2023-04-05T06:54:04.936Z,40.25
2023-04-05T06:56:33.429Z,40.50
2023-04-05T06:59:02.360Z,39.94
2023-04-05T07:01:32.262Z,40.27
2023-04-05T07:04:02.195Z,40.04
2023-04-05T07:06:30.320Z,39.36
2023-04-05T07:08:58.069Z,39.41
2023-04-05T07:11:25.743Z,39.90
2023-04-05T07:13:53.442Z,39.63
2023-04-05T07:16:23.934Z,39.55
2023-04-05T07:18:51.809Z,39.75
2023-04-05T07:21:19.500Z,39.26
2023-04-05T07:23:47.284Z,39.24
2023-04-05T07:26:17.978Z,39.41
2023-04-05T07:28:45.705Z,39.33
2023-04-05T07:31:15.881Z,38.91
2023-04-05T07:33:43.612Z,39.35
2023-04-05T07:36:11.448Z,38.95
2023-04-05T07:38:42.291Z,38.76
2023-04-05T07:41:10.935Z,38.77
2023-04-05T07:43:38.671Z,38.70
2023-04-05T07:46:07.552Z,38.90
2023-04-05T07:48:35.727Z,38.54
2023-04-05T07:51:05.628Z,38.32
2023-04-05T07:53:37.414Z,38.92
2023-04-05T07:56:10.946Z,38.57
2023-04-05T07:58:42.119Z,38.64
2023-04-05T08:01:11.181Z,38.76
2023-04-05T08:03:40.143Z,38.53
2023-04-05T08:06:15.397Z,38.50
2023-04-05T08:08:43.544Z,38.43
2023-04-05T08:11:11.538Z,38.28
2023-04-05T08:13:41.676Z,38.13
2023-04-05T08:16:11.073Z,38.48
2023-04-05T08:18:40.820Z,38.08
2023-04-05T08:21:09.616Z,38.48
2023-04-05T08:23:37.644Z,38.37
2023-04-05T08:26:07.489Z,38.00
2023-04-05T08:28:36.288Z,37.93
2023-04-05T08:31:04.081Z,37.88
2023-04-05T08:33:36.331Z,37.86
2023-04-05T08:36:09.061Z,37.54
2023-04-05T08:38:37.312Z,37.42
2023-04-05T08:41:19.568Z,37.30
2023-04-05T08:44:02.905Z,37.07
2023-04-05T08:46:33.295Z,37.19
2023-04-05T08:49:08.855Z,37.16
2023-04-05T08:51:41.078Z,37.28
2023-04-05T08:54:09.805Z,37.11
2023-04-05T08:56:42.193Z,37.12
2023-04-05T08:59:15.739Z,37.31
2023-04-05T09:01:45.405Z,36.92
2023-04-05T09:04:23.518Z,37.79
2023-04-05T09:06:56.117Z,37.96
2023-04-05T09:09:25.867Z,37.83
2023-04-05T09:11:54.489Z,37.62
2023-04-05T09:14:27.266Z,37.69
2023-04-05T09:16:58.601Z,37.77
2023-04-05T09:19:27.012Z,37.54
2023-04-05T09:22:06.861Z,37.39
2023-04-05T09:24:44.887Z,37.34
2023-04-05T09:27:19.874Z,37.34
2023-04-05T09:29:56.078Z,37.41
2023-04-05T09:32:29.232Z,37.03
2023-04-05T09:35:01.375Z,36.84
2023-04-05T09:37:32.291Z,36.68
2023-04-05T09:40:06.931Z,36.59
2023-04-05T09:42:47.972Z,36.03
2023-04-05T09:45:18.498Z,36.00
2023-04-05T09:47:59.103Z,36.09
2023-04-05T09:50:27.198Z,35.70
2023-04-05T09:53:16.313Z,35.40
2023-04-05T09:55:44.775Z,35.79
2023-04-05T09:58:22.926Z,35.52
2023-04-05T10:01:03.338Z,35.63
2023-04-05T10:03:50.205Z,35.19
2023-04-05T10:06:19.149Z,35.05
2023-04-05T10:08:48.577Z,34.87
2023-04-05T10:11:19.723Z,34.96
2023-04-05T10:13:50.563Z,34.76
2023-04-05T10:16:26.081Z,34.11
2023-04-05T10:18:54.089Z,34.32
2023-04-05T10:21:28.645Z,34.46
2023-04-05T10:24:36.786Z,33.97
2023-04-05T10:27:28.496Z,34.18
2023-04-05T10:30:05.801Z,34.61
2023-04-05T10:33:32.724Z,34.09
2023-04-05T10:36:50.906Z,34.17
2023-04-05T10:39:28.730Z,34.08
2023-04-05T10:42:28.014Z,33.94
2023-04-05T10:45:19.896Z,33.98
2023-04-05T10:47:59.212Z,33.54
2023-04-05T10:50:27.439Z,33.06
2023-04-05T10:52:57.674Z,32.54
2023-04-05T10:55:26.135Z,32.52
2023-04-05T10:57:54.961Z,32.39
2023-04-05T11:00:23.700Z,32.42
2023-04-05T11:02:58.660Z,32.49
2023-04-05T11:05:44.877Z,31.88
2023-04-05T11:08:13.736Z,32.01
2023-04-05T11:10:41.994Z,31.90
2023-04-05T11:13:10.908Z,31.90
2023-04-05T11:15:40.567Z,31.75
2023-04-05T11:18:17.946Z,31.47
2023-04-05T11:20:57.637Z,31.63
2023-04-05T11:23:29.575Z,31.70
2023-04-05T11:26:06.808Z,31.24
2023-04-05T11:28:39.283Z,31.38
2023-04-05T11:31:19.851Z,31.22
2023-04-05T11:33:55.370Z,31.25
2023-04-05T11:36:45.086Z,30.70
2023-04-05T11:39:22.537Z,30.88
2023-04-05T11:42:07.385Z,30.82
2023-04-05T11:44:44.244Z,30.84
2023-04-05T11:47:13.282Z,30.88
2023-04-05T11:49:42.220Z,30.70
2023-04-05T11:52:16.546Z,30.56
2023-04-05T11:54:46.650Z,30.57
2023-04-05T11:57:24.516Z,30.38
2023-04-05T11:59:53.863Z,30.47
2023-04-05T12:02:22.831Z,30.50
2023-04-05T12:04:57.657Z,30.42
2023-04-05T12:07:32.013Z,30.33
2023-04-05T12:10:09.712Z,30.15
2023-04-05T12:12:43.289Z,30.21
2023-04-05T12:15:18.767Z,30.24
2023-04-05T12:17:50.704Z,30.16
2023-04-05T12:20:27.182Z,29.91
2023-04-05T12:22:57.391Z,29.89
2023-04-05T12:25:26.160Z,30.01
2023-04-05T12:27:53.905Z,29.57
2023-04-05T12:30:24.018Z,29.67
2023-04-05T12:32:54.352Z,29.57
2023-04-05T12:35:35.051Z,29.47
2023-04-05T12:38:07.249Z,29.60
2023-04-05T12:40:37.002Z,29.58
2023-04-05T12:43:09.749Z,29.28
2023-04-05T12:45:41.823Z,29.32
2023-04-05T12:48:15.861Z,29.18
2023-04-05T12:50:46.698Z,29.14
2023-04-05T12:53:22.997Z,29.18
2023-04-05T12:55:56.593Z,29.21
2023-04-05T12:58:37.590Z,29.08
2023-04-05T13:01:06.932Z,29.34
2023-04-05T13:03:34.941Z,29.11
2023-04-05T13:06:03.410Z,29.01
2023-04-05T13:08:31.696Z,29.02
2023-04-05T13:11:00.949Z,28.80
2023-04-05T13:13:30.970Z,28.77
2023-04-05T13:15:58.968Z,28.67
2023-04-05T13:18:26.950Z,28.56
2023-04-05T13:20:54.764Z,28.56
2023-04-05T13:23:22.930Z,28.50
2023-04-05T13:25:52.018Z,28.27
2023-04-05T13:28:19.889Z,28.23
2023-04-05T13:30:48.662Z,28.15
2023-04-05T13:33:21.013Z,27.95
2023-04-05T13:35:49.777Z,27.94
2023-04-05T13:38:18.127Z,27.67
2023-04-05T13:40:46.217Z,27.48
2023-04-05T13:43:14.246Z,27.38
2023-04-05T13:45:42.376Z,27.10
2023-04-05T13:48:10.485Z,27.21
2023-04-05T13:50:38.327Z,27.29
2023-04-05T13:53:06.219Z,27.35
2023-04-05T13:55:37.314Z,27.26
2023-04-05T13:58:05.313Z,27.61
2023-04-05T14:00:35.185Z,27.34
2023-04-05T14:03:03.013Z,27.40
2023-04-05T14:05:31.337Z,27.55
2023-04-05T14:07:59.176Z,27.34
2023-04-05T14:10:27.098Z,27.38
2023-04-05T14:12:54.814Z,27.21
2023-04-05T14:15:22.573Z,27.41
2023-04-05T14:17:51.149Z,27.55
2023-04-05T14:20:19.041Z,27.63
2023-04-05T14:22:48.678Z,27.67
2023-04-05T14:25:18.924Z,27.54
2023-04-05T14:27:46.801Z,27.52
2023-04-05T14:30:15.013Z,27.48
2023-04-05T14:32:43.523Z,27.47
2023-04-05T14:35:11.388Z,27.45
2023-04-05T14:37:39.201Z,27.16
2023-04-05T14:40:08.759Z,27.38
2023-04-05T14:42:47.936Z,27.45
2023-04-05T14:45:18.418Z,27.55
2023-04-05T14:47:46.726Z,27.74
2023-04-05T14:50:18.908Z,27.54
2023-04-05T14:52:46.713Z,27.50
2023-04-05T14:55:16.643Z,27.14
2023-04-05T14:57:44.820Z,27.14
2023-04-05T15:00:13.365Z,27.20
2023-04-05T15:02:42.164Z,27.17
2023-04-05T15:05:10.651Z,27.17
2023-04-05T15:07:40.277Z,27.06
2023-04-05T15:10:08.564Z,27.00
2023-04-05T15:12:38.610Z,27.00
2023-04-05T15:15:07.406Z,26.93
2023-04-05T15:17:35.898Z,26.73
2023-04-05T15:20:04.302Z,26.63
2023-04-05T15:22:32.689Z,26.94
2023-04-05T15:25:00.930Z,26.72
2023-04-05T15:27:28.874Z,26.86
2023-04-05T15:29:56.817Z,26.74
2023-04-05T15:32:24.730Z,26.78
2023-04-05T15:34:52.672Z,26.50
2023-04-05T15:37:20.487Z,26.50
2023-04-05T15:39:48.700Z,26.56
2023-04-05T15:42:18.554Z,26.54
2023-04-05T15:44:46.502Z,26.33
2023-04-05T15:47:14.333Z,26.15
2023-04-05T15:49:43.525Z,26.01
2023-04-05T15:52:11.743Z,25.57
2023-04-05T15:54:39.567Z,25.70
2023-04-05T15:57:07.501Z,25.43
2023-04-05T15:59:35.920Z,25.60
2023-04-05T16:02:04.636Z,25.77
2023-04-05T16:04:32.536Z,25.48
2023-04-05T16:07:00.503Z,25.28
2023-04-05T16:09:28.356Z,25.05
2023-04-05T16:11:56.307Z,24.87
2023-04-05T16:14:24.362Z,24.94
2023-04-05T16:16:54.668Z,24.85
2023-04-05T16:19:23.503Z,24.86
2023-04-05T16:21:52.953Z,24.94
2023-04-05T16:24:22.977Z,24.98
2023-04-05T16:26:51.546Z,24.95
2023-04-05T16:29:22.267Z,24.87
2023-04-05T16:31:50.355Z,24.70
2023-04-05T16:34:18.456Z,24.82
2023-04-05T16:36:46.652Z,24.86
2023-04-05T16:39:14.451Z,24.79
2023-04-05T16:41:42.379Z,24.83
2023-04-05T16:44:10.448Z,24.53
2023-04-05T16:46:39.991Z,24.67
2023-04-05T16:49:09.257Z,24.93
2023-04-05T16:51:37.121Z,24.86
2023-04-05T16:54:05.267Z,24.90
2023-04-05T16:56:33.067Z,24.97
2023-04-05T16:59:01.235Z,25.03
2023-04-05T17:01:31.366Z,25.01
2023-04-05T17:04:00.095Z,25.01
2023-04-05T17:06:28.960Z,25.05
2023-04-05T17:08:57.367Z,25.24
2023-04-05T17:11:28.249Z,25.17
2023-04-05T17:13:57.117Z,25.08
2023-04-05T17:16:25.671Z,25.03
2023-04-05T17:18:53.659Z,24.90
2023-04-05T17:21:23.699Z,24.96
2023-04-05T17:23:52.421Z,24.90
2023-04-05T17:26:26.902Z,24.71
2023-04-05T17:28:56.179Z,24.75
2023-04-05T17:31:24.354Z,24.74
2023-04-05T17:33:52.155Z,24.71
2023-04-05T17:36:20.519Z,24.71
2023-04-05T17:38:48.435Z,24.76
2023-04-05T17:41:16.584Z,24.78
2023-04-05T17:43:44.353Z,24.83
2023-04-05T17:46:13.982Z,24.86
2023-04-05T17:48:42.458Z,24.71
2023-04-05T17:51:10.530Z,24.71
2023-04-05T17:53:38.910Z,24.88
2023-04-05T17:56:06.879Z,24.86
2023-04-05T17:58:35.151Z,24.98
2023-04-05T18:01:04.010Z,24.89
2023-04-05T18:03:32.665Z,24.93
2023-04-05T18:06:00.820Z,25.06
2023-04-05T18:08:29.253Z,25.09
2023-04-05T18:10:59.088Z,25.18
2023-04-05T18:13:29.102Z,25.70
2023-04-05T18:15:59.061Z,25.91
2023-04-05T18:18:28.519Z,25.87
2023-04-05T18:21:01.843Z,26.00
2023-04-05T18:23:29.864Z,26.24
2023-04-05T18:25:58.661Z,26.32
2023-04-05T18:28:27.187Z,26.34
2023-04-05T18:30:55.659Z,26.26
2023-04-05T18:33:27.328Z,26.39
2023-04-05T18:36:02.052Z,26.83
2023-04-05T18:38:30.577Z,27.23
2023-04-05T18:41:08.937Z,27.53
2023-04-05T18:43:40.447Z,27.44
2023-04-05T18:46:08.491Z,27.60
2023-04-05T18:48:49.459Z,27.75
2023-04-05T18:51:18.846Z,27.64
2023-04-05T18:53:55.335Z,27.62
2023-04-05T18:56:27.491Z,27.55
2023-04-05T18:58:59.884Z,27.60
2023-04-05T19:01:35.649Z,27.77
2023-04-05T19:04:09.895Z,27.53
2023-04-05T19:06:47.262Z,27.33
2023-04-05T19:09:18.368Z,27.48
2023-04-05T19:11:57.101Z,27.54
2023-04-05T19:14:25.422Z,27.36
2023-04-05T19:16:56.569Z,27.73
2023-04-05T19:19:28.209Z,28.00
2023-04-05T19:22:02.944Z,28.12
2023-04-05T19:24:31.474Z,28.40
2023-04-05T19:26:59.615Z,28.70
2023-04-05T19:29:31.067Z,28.54
2023-04-05T19:32:00.424Z,28.58
2023-04-05T19:34:33.395Z,28.79
2023-04-05T19:37:03.464Z,28.95
2023-04-05T19:39:33.485Z,29.16
2023-04-05T19:42:01.713Z,29.46
2023-04-05T19:44:50.780Z,29.77
2023-04-05T19:47:22.115Z,29.61
2023-04-05T19:49:55.374Z,29.80
2023-04-05T19:52:35.424Z,30.20
2023-04-05T19:55:37.520Z,30.54
2023-04-05T19:58:10.508Z,30.44
2023-04-05T20:00:55.365Z,30.65
2023-04-05T20:03:38.955Z,30.79
2023-04-05T20:06:18.738Z,31.16
2023-04-05T20:08:48.257Z,31.24
2023-04-05T20:11:25.052Z,31.46
2023-04-05T20:14:01.691Z,31.72
2023-04-05T20:16:37.899Z,32.00
2023-04-05T20:19:13.412Z,32.02
2023-04-05T20:21:43.341Z,31.99
2023-04-05T20:24:21.434Z,32.14
2023-04-05T20:26:58.399Z,32.59
2023-04-05T20:29:32.547Z,32.38
2023-04-05T20:32:02.340Z,32.38
2023-04-05T20:34:38.066Z,32.54
2023-04-05T20:37:10.017Z,32.70
2023-04-05T20:39:40.726Z,32.64
2023-04-05T20:42:15.043Z,32.68
2023-04-05T20:44:48.142Z,32.73
2023-04-05T20:47:16.174Z,32.66
2023-04-05T20:49:48.602Z,32.82
2023-04-05T20:52:20.508Z,33.11
2023-04-05T20:54:49.861Z,32.83
2023-04-05T20:57:18.185Z,32.76
2023-04-05T20:59:51.308Z,32.52
2023-04-05T21:02:19.395Z,32.71
2023-04-05T21:04:58.324Z,32.89
2023-04-05T21:07:36.481Z,32.98
2023-04-05T21:10:13.512Z,33.02
2023-04-05T21:12:41.642Z,33.37
2023-04-05T21:15:12.508Z,33.24
2023-04-05T21:17:40.685Z,33.79
2023-04-05T21:20:10.722Z,33.74
2023-04-05T21:22:42.237Z,33.84
2023-04-05T21:25:10.771Z,33.62
2023-04-05T21:27:38.813Z,33.79
2023-04-05T21:30:12.449Z,34.25
2023-04-05T21:32:41.534Z,34.22
2023-04-05T21:35:09.887Z,33.98
2023-04-05T21:37:41.480Z,34.43
2023-04-05T21:40:09.802Z,33.88
2023-04-05T21:42:44.902Z,34.08
2023-04-05T21:45:18.746Z,34.18
2023-04-05T21:47:50.763Z,34.27
2023-04-05T21:50:20.533Z,34.67
2023-04-05T21:52:48.755Z,34.64
2023-04-05T21:55:17.277Z,34.70
2023-04-05T21:57:45.433Z,34.77
2023-04-05T22:00:17.254Z,35.42
2023-04-05T22:02:49.779Z,35.26
2023-04-05T22:05:29.568Z,35.32
2023-04-05T22:08:02.528Z,34.93
2023-04-05T22:10:34.398Z,35.33
2023-04-05T22:13:06.025Z,35.47
2023-04-05T22:15:35.537Z,35.14
2023-04-05T22:18:09.816Z,35.30
2023-04-05T22:20:45.232Z,35.04
2023-04-05T22:23:16.482Z,35.62
2023-04-05T22:25:57.587Z,35.23
2023-04-05T22:28:28.579Z,35.27
2023-04-05T22:30:57.052Z,35.95
2023-04-05T22:33:48.065Z,35.46
2023-04-05T22:36:16.526Z,35.84
2023-04-05T22:38:44.341Z,36.11
2023-04-05T22:41:12.263Z,35.75
2023-04-05T22:43:40.339Z,35.87
2023-04-05T22:46:08.428Z,36.01
2023-04-05T22:48:36.438Z,35.97
2023-04-05T22:51:04.490Z,35.93
2023-04-05T22:53:33.024Z,36.29
2023-04-05T22:56:01.091Z,36.33
2023-04-05T22:58:32.709Z,36.49
2023-04-05T23:01:02.475Z,36.36
2023-04-05T23:03:30.784Z,36.54
2023-04-05T23:05:58.673Z,36.40
2023-04-05T23:08:26.517Z,36.63
2023-04-05T23:10:54.594Z,36.42
2023-04-05T23:13:22.372Z,37.04
2023-04-05T23:15:50.426Z,36.51
2023-04-05T23:18:22.220Z,36.88
2023-04-05T23:20:50.655Z,36.95
2023-04-05T23:23:18.508Z,37.42
2023-04-05T23:25:46.399Z,37.22
2023-04-05T23:28:14.477Z,37.23
2023-04-05T23:30:42.500Z,37.61
2023-04-05T23:33:12.888Z,37.54
2023-04-05T23:35:43.108Z,37.41
2023-04-05T23:38:11.505Z,37.44
2023-04-05T23:40:39.381Z,37.70
2023-04-05T23:43:07.249Z,37.70
2023-04-05T23:45:35.512Z,37.44
2023-04-05T23:48:03.579Z,37.53
2023-04-05T23:50:31.587Z,37.86
2023-04-05T23:53:02.177Z,37.51
2023-04-05T23:55:32.572Z,37.82
2023-04-05T23:58:01.296Z,37.76
